Time;durP1;ratioP1;P1;durP2;ratioP2;P2;SDS_P1;SDS_P2;PMS_P1;PMS_P2;Temp;Humidity;BMP_temperature;BMP_pressure;BME280_temperature;BME280_humidity;BME280_pressure;Samples;Min_cycle;Max_cycle;Signal;HPM_P1;HPM_P2
2022/01/03 00:01:44;;;;;;;4.70;0.80;;;12.70;99.90;;;;;;5107221;27;20202;-85
2022/01/03 00:04:10;;;;;;;3.00;1.13;;;12.70;99.90;;;;;;5091656;27;20469;-85
2022/01/03 00:06:38;;;;;;;5.18;1.98;;;12.50;99.90;;;;;;5091762;27;21021;-86
2022/01/03 00:09:05;;;;;;;4.83;1.60;;;12.50;99.90;;;;;;5093291;27;20764;-89
2022/01/03 00:11:31;;;;;;;3.25;0.90;;;;;;;;;;5095670;27;20470;-86
2022/01/03 00:13:57;;;;;;;4.80;1.77;;;12.50;99.90;;;;;;5092336;27;20290;-85
2022/01/03 00:16:24;;;;;;;3.63;1.80;;;12.50;99.90;;;;;;5098556;27;20503;-84
2022/01/03 00:18:52;;;;;;;1.23;1.00;;;12.10;99.90;;;;;;5097765;27;20691;-90
2022/01/03 00:21:19;;;;;;;4.23;1.13;;;12.50;99.90;;;;;;5094241;27;20255;-86
2022/01/03 00:23:51;;;;;;;4.50;1.03;;;12.50;99.90;;;;;;5088888;27;20520;-85
2022/01/03 00:26:23;;;;;;;3.22;1.20;;;12.50;99.90;;;;;;5105880;27;20961;-84
2022/01/03 00:28:58;;;;;;;8.37;1.10;;;12.50;99.90;;;;;;5096365;27;20187;-85
2022/01/03 00:31:39;;;;;;;2.57;1.30;;;12.50;99.90;;;;;;5104226;27;20455;-88
2022/01/03 00:34:07;;;;;;;8.45;0.98;;;12.50;99.90;;;;;;5099453;27;20460;-87
2022/01/03 00:36:34;;;;;;;7.30;1.20;;;12.50;99.90;;;;;;5088580;27;20649;-89
2022/01/03 00:39:00;;;;;;;3.88;1.55;;;12.50;99.90;;;;;;5095303;27;20179;-86
2022/01/03 00:41:25;;;;;;;2.20;1.43;;;;;;;;;;5090231;27;20236;-86
2022/01/03 00:43:53;;;;;;;11.30;2.23;;;12.40;99.90;;;;;;5092817;27;20473;-85
2022/01/03 00:46:21;;;;;;;2.77;0.80;;;12.50;99.90;;;;;;5095944;27;20447;-86
2022/01/03 00:48:47;;;;;;;6.00;1.00;;;12.50;99.90;;;;;;5104721;27;20444;-86
2022/01/03 00:51:19;;;;;;;7.75;1.45;;;12.40;99.90;;;;;;5095190;27;21040;-87
2022/01/03 00:53:49;;;;;;;5.55;1.35;;;15.40;99.90;;;;;;5110088;27;20199;-89
2022/01/03 00:56:24;;;;;;;2.13;1.10;;;12.40;99.90;;;;;;5103177;27;20207;-83
2022/01/03 00:59:11;;;;;;;3.13;0.93;;;12.40;99.90;;;;;;5100860;27;20455;-88
2022/01/03 01:01:42;;;;;;;5.40;2.00;;;12.30;99.90;;;;;;5092009;27;20451;-87
2022/01/03 01:04:09;;;;;;;5.60;1.30;;;12.30;99.90;;;;;;5112951;27;20182;-87
2022/01/03 01:06:36;;;;;;;5.83;1.70;;;12.40;99.90;;;;;;5102003;27;20916;-86
2022/01/03 01:09:04;;;;;;;4.85;1.65;;;12.40;99.90;;;;;;5095661;28;20578;-88
2022/01/03 01:11:31;;;;;;;2.78;1.50;;;12.10;99.90;;;;;;5091225;27;20682;-84
2022/01/03 01:13:58;;;;;;;4.27;1.50;;;12.30;99.90;;;;;;5095332;27;20205;-84
2022/01/03 01:16:25;;;;;;;9.05;1.33;;;12.30;99.90;;;;;;5096219;27;20648;-85
2022/01/03 01:18:51;;;;;;;7.07;2.17;;;12.20;99.90;;;;;;5104890;27;20242;-87
2022/01/03 01:21:17;;;;;;;1.50;0.83;;;12.30;99.90;;;;;;5110006;27;20476;-82
2022/01/03 01:23:43;;;;;;;1.00;0.50;;;12.60;99.90;;;;;;5109444;27;20452;-85
2022/01/03 01:28:54;;;;;;;4.15;1.63;;;12.30;99.90;;;;;;5114735;27;20605;-82
2022/01/03 01:31:23;;;;;;;8.33;1.80;;;12.30;99.90;;;;;;5107903;27;20739;-86
2022/01/03 01:33:58;;;;;;;3.53;1.00;;;12.20;99.90;;;;;;5098483;27;20459;-85
2022/01/03 01:36:26;;;;;;;3.20;1.10;;;12.20;99.90;;;;;;5079918;27;20265;-87
2022/01/03 01:38:59;;;;;;;2.85;1.55;;;12.20;99.90;;;;;;5077734;27;20509;-84
2022/01/03 01:41:28;;;;;;;9.47;1.57;;;12.20;99.90;;;;;;5073881;27;20305;-86
2022/01/03 01:43:59;;;;;;;1.77;0.73;;;12.20;99.90;;;;;;5082959;27;20448;-81
2022/01/03 01:46:25;;;;;;;5.07;1.50;;;12.20;99.90;;;;;;5113120;27;20463;-84
2022/01/03 01:48:52;;;;;;;3.55;1.05;;;;;;;;;;5100705;27;20546;-84
2022/01/03 01:51:21;;;;;;;6.97;1.80;;;12.10;99.90;;;;;;5078296;27;20347;-84
2022/01/03 01:53:50;;;;;;;4.73;1.60;;;12.10;99.90;;;;;;5099124;27;20460;-87
2022/01/03 01:56:19;;;;;;;1.87;0.97;;;12.00;99.90;;;;;;5103981;27;20420;-83
2022/01/03 01:59:10;;;;;;;6.72;1.10;;;12.00;99.90;;;;;;5087495;27;20437;-88
2022/01/03 02:01:49;;;;;;;5.80;1.03;;;12.00;99.90;;;;;;5114742;27;20719;-83
2022/01/03 02:04:24;;;;;;;2.70;1.20;;;11.90;99.90;;;;;;5094561;27;20486;-86
2022/01/03 02:06:54;;;;;;;4.07;0.88;;;11.90;99.90;;;;;;5089275;28;20926;-88
2022/01/03 02:09:29;;;;;;;4.43;0.90;;;11.90;99.90;;;;;;5100008;27;20259;-84
2022/01/03 02:11:57;;;;;;;2.93;1.40;;;12.00;99.90;;;;;;5097253;28;20322;-88
2022/01/03 02:14:25;;;;;;;12.52;1.85;;;12.00;99.90;;;;;;5106486;27;20710;-89
2022/01/03 02:16:52;;;;;;;3.07;1.20;;;11.90;99.90;;;;;;5097938;27;20187;-88
2022/01/03 02:19:19;;;;;;;3.33;1.42;;;;;;;;;;5098842;27;20443;-83
2022/01/03 02:21:45;;;;;;;6.03;1.38;;;11.90;99.90;;;;;;5103533;27;20205;-89
2022/01/03 02:24:12;;;;;;;11.63;1.50;;;12.00;99.90;;;;;;5102730;27;20188;-87
2022/01/03 02:26:37;;;;;;;13.88;1.48;;;12.00;99.90;;;;;;5107906;27;20190;-88
2022/01/03 02:29:04;;;;;;;2.70;1.10;;;12.00;99.90;;;;;;5120089;27;20178;-86
2022/01/03 02:31:32;;;;;;;1.85;1.17;;;12.00;99.90;;;;;;5103956;27;20240;-87
2022/01/03 02:34:00;;;;;;;3.97;1.27;;;11.90;99.90;;;;;;5104395;27;20203;-82
2022/01/03 02:36:26;;;;;;;2.63;0.98;;;12.80;99.90;;;;;;5099656;27;20258;-87
2022/01/03 02:38:52;;;;;;;6.65;1.30;;;11.90;99.90;;;;;;5099838;27;20183;-86
2022/01/03 02:41:18;;;;;;;2.43;0.70;;;;;;;;;;5100861;27;20191;-87
2022/01/03 02:43:43;;;;;;;29.30;2.30;;;11.80;99.90;;;;;;5091921;27;20186;-87
2022/01/03 02:46:09;;;;;;;4.93;1.70;;;;;;;;;;5101827;27;20445;-88
2022/01/03 02:48:35;;;;;;;8.77;1.30;;;;;;;;;;5099878;27;20262;-88
2022/01/03 02:51:01;;;;;;;2.75;1.10;;;11.80;99.90;;;;;;5091958;27;20206;-86
2022/01/03 02:53:27;;;;;;;4.80;1.23;;;11.70;99.90;;;;;;5083279;27;20228;-85
2022/01/03 02:55:53;;;;;;;9.53;1.70;;;11.70;99.90;;;;;;5085358;27;22790;-86
2022/01/03 02:58:18;;;;;;;5.80;1.67;;;11.70;99.90;;;;;;5076655;27;20696;-90
2022/01/03 03:00:49;;;;;;;7.93;1.77;;;11.70;99.90;;;;;;5091954;27;20894;-87
2022/01/03 03:03:16;;;;;;;9.43;1.40;;;11.70;99.90;;;;;;5097197;27;20640;-90
2022/01/03 03:05:43;;;;;;;8.98;1.60;;;11.70;99.90;;;;;;5085774;27;20190;-86
2022/01/03 03:08:10;;;;;;;3.53;1.60;;;11.70;99.90;;;;;;5084992;27;20278;-88
2022/01/03 03:10:36;;;;;;;3.33;1.50;;;11.70;99.90;;;;;;5078989;27;20495;-86
2022/01/03 03:13:02;;;;;;;8.93;2.37;;;;;;;;;;5086266;27;21207;-89
2022/01/03 03:15:28;;;;;;;4.80;1.40;;;11.70;99.90;;;;;;5082298;27;20435;-84
2022/01/03 03:17:53;;;;;;;4.40;1.17;;;11.60;99.90;;;;;;5093003;27;20192;-85
2022/01/03 03:20:22;;;;;;;5.40;1.40;;;11.70;99.90;;;;;;5078247;27;20194;-87
2022/01/03 03:22:49;;;;;;;4.60;1.15;;;11.70;99.90;;;;;;5094660;27;20225;-85
2022/01/03 03:25:30;;;;;;;3.40;0.98;;;11.70;99.90;;;;;;5079784;27;20197;-88
2022/01/03 03:28:02;;;;;;;12.80;1.47;;;11.60;99.90;;;;;;5088062;27;20398;-87
2022/01/03 03:30:35;;;;;;;4.50;1.35;;;11.50;99.90;;;;;;5097096;27;20576;-86
2022/01/03 03:33:13;;;;;;;5.15;2.05;;;11.50;99.90;;;;;;5100718;27;20183;-83
2022/01/03 03:35:39;;;;;;;6.32;1.75;;;11.50;99.90;;;;;;5094132;27;20190;-85
2022/01/03 03:38:05;;;;;;;3.13;1.30;;;11.50;99.90;;;;;;5081428;27;20305;-82
2022/01/03 03:40:31;;;;;;;5.93;1.70;;;11.40;99.90;;;;;;5096681;27;20183;-86
2022/01/03 03:42:56;;;;;;;8.57;2.43;;;11.50;99.90;;;;;;5111478;27;20437;-89
2022/01/03 03:45:23;;;;;;;5.90;1.60;;;11.10;99.90;;;;;;5086893;27;20363;-84
2022/01/03 03:47:49;;;;;;;8.32;2.35;;;11.40;99.90;;;;;;5101537;27;20189;-89
2022/01/03 03:50:15;;;;;;;11.10;1.50;;;;;;;;;;5081368;27;20190;-88
2022/01/03 03:52:41;;;;;;;5.97;1.23;;;;;;;;;;5084054;27;20206;-88
2022/01/03 03:55:07;;;;;;;2.20;1.40;;;11.30;99.90;;;;;;5087300;27;20252;-87
2022/01/03 03:57:33;;;;;;;8.90;1.63;;;11.30;99.90;;;;;;5099577;27;20436;-88
2022/01/03 03:59:58;;;;;;;4.77;1.50;;;11.20;99.90;;;;;;5077547;27;20189;-86
2022/01/03 04:02:24;;;;;;;7.07;1.87;;;11.20;99.90;;;;;;5116373;27;20199;-88
2022/01/03 04:04:50;;;;;;;6.23;1.50;;;11.20;99.90;;;;;;5099516;27;20194;-89
2022/01/03 04:07:16;;;;;;;5.18;1.17;;;11.20;99.90;;;;;;5086746;27;20427;-87
2022/01/03 04:09:41;;;;;;;10.20;2.00;;;11.10;99.90;;;;;;5097844;27;21293;-84
2022/01/03 04:12:08;;;;;;;6.43;1.60;;;;;;;;;;5103991;27;20229;-84
2022/01/03 04:14:33;;;;;;;6.38;1.38;;;11.10;99.90;;;;;;5085193;27;20294;-88
2022/01/03 04:16:59;;;;;;;11.07;2.30;;;;;;;;;;5084955;27;20187;-88
2022/01/03 04:19:25;;;;;;;4.70;1.30;;;;;;;;;;5084563;27;20182;-88
2022/01/03 04:21:51;;;;;;;1.83;1.00;;;;;;;;;;5079688;27;20556;-90
2022/01/03 04:24:17;;;;;;;6.37;1.43;;;;;;;;;;5098682;27;20440;-86
2022/01/03 04:26:45;;;;;;;5.27;1.20;;;;;;;;;;5078306;27;20884;-84
2022/01/03 04:29:10;;;;;;;7.40;1.25;;;11.20;99.90;;;;;;5085737;27;20503;-87
2022/01/03 04:31:36;;;;;;;3.03;0.83;;;11.10;99.90;;;;;;5094309;27;20258;-85
2022/01/03 04:34:02;;;;;;;5.67;2.33;;;11.10;99.90;;;;;;5116042;27;20191;-83
2022/01/03 04:36:28;;;;;;;2.40;1.20;;;;;;;;;;5103074;27;20895;-87
2022/01/03 04:38:54;;;;;;;3.70;1.52;;;;;;;;;;5095454;27;20183;-88
2022/01/03 04:41:20;;;;;;;6.13;1.20;;;11.00;99.90;;;;;;5096042;27;20780;-87
2022/01/03 04:43:46;;;;;;;2.03;0.80;;;10.90;99.90;;;;;;5101944;27;20460;-83
2022/01/03 04:46:12;;;;;;;4.37;1.70;;;10.90;99.90;;;;;;5106877;28;20202;-88
2022/01/03 04:48:39;;;;;;;7.60;1.50;;;10.90;99.90;;;;;;5112766;27;20191;-90
2022/01/03 04:51:05;;;;;;;4.70;1.10;;;10.60;99.90;;;;;;5119971;27;20194;-86
2022/01/03 04:53:33;;;;;;;7.90;1.47;;;10.80;99.90;;;;;;5103901;27;20216;-87
2022/01/03 04:55:58;;;;;;;6.80;1.50;;;10.90;99.90;;;;;;5105171;27;20428;-86
2022/01/03 04:58:24;;;;;;;2.63;1.57;;;;;;;;;;5097285;27;20311;-90
2022/01/03 05:00:50;;;;;;;6.07;1.25;;;10.70;99.90;;;;;;5099729;27;20182;-86
2022/01/03 05:03:16;;;;;;;4.25;0.93;;;10.70;99.90;;;;;;5097897;27;20190;-86
2022/01/03 05:05:42;;;;;;;4.40;1.00;;;;;;;;;;5098947;28;20179;-85
2022/01/03 05:08:08;;;;;;;3.50;1.47;;;10.50;99.90;;;;;;5089573;27;20435;-88
2022/01/03 05:10:34;;;;;;;3.20;1.13;;;10.50;99.90;;;;;;5097211;27;20433;-86
2022/01/03 05:13:00;;;;;;;7.47;0.90;;;10.50;99.90;;;;;;5099382;28;20424;-88
2022/01/03 05:15:26;;;;;;;6.22;1.00;;;10.40;99.90;;;;;;5099264;27;20205;-84
2022/01/03 05:17:51;;;;;;;3.60;0.90;;;10.30;99.90;;;;;;5102083;27;20204;-84
2022/01/03 05:20:17;;;;;;;5.77;1.43;;;10.20;99.90;;;;;;5104260;27;20619;-87
2022/01/03 05:22:43;;;;;;;4.70;1.23;;;10.20;99.90;;;;;;5095720;27;20285;-84
2022/01/03 05:25:09;;;;;;;2.13;1.00;;;10.20;99.90;;;;;;5098903;28;20224;-85
2022/01/03 05:27:37;;;;;;;2.33;1.20;;;10.10;99.90;;;;;;5100114;27;20452;-84
2022/01/03 05:30:03;;;;;;;10.05;1.05;;;10.00;99.90;;;;;;5102162;28;20815;-87
2022/01/03 05:32:29;;;;;;;6.05;1.10;;;9.90;99.90;;;;;;5114212;27;20608;-86
2022/01/03 05:34:54;;;;;;;10.53;1.80;;;9.80;99.90;;;;;;5100730;28;20210;-87
2022/01/03 05:37:20;;;;;;;12.93;2.33;;;;;;;;;;5106583;28;20667;-89
2022/01/03 05:39:46;;;;;;;3.00;1.40;;;;;;;;;;5095626;28;20182;-85
2022/01/03 05:42:12;;;;;;;5.70;1.80;;;9.80;99.90;;;;;;5105017;28;20495;-88
2022/01/03 05:44:37;;;;;;;3.17;1.40;;;9.90;99.90;;;;;;5091993;28;20511;-87
2022/01/03 05:47:03;;;;;;;5.33;1.63;;;9.90;99.90;;;;;;5118076;27;20269;-81
2022/01/03 05:49:29;;;;;;;6.93;1.20;;;9.90;99.90;;;;;;5104961;27;20179;-85
2022/01/03 05:51:55;;;;;;;8.10;1.43;;;;;;;;;;5102460;28;21035;-85
2022/01/03 05:54:21;;;;;;;7.70;1.70;;;10.00;99.90;;;;;;5107328;28;20199;-86
2022/01/03 05:56:46;;;;;;;11.80;1.90;;;9.90;99.90;;;;;;5098585;27;20190;-87
2022/01/03 05:59:12;;;;;;;9.77;2.37;;;9.90;99.90;;;;;;5111297;27;20174;-86
2022/01/03 06:01:38;;;;;;;8.10;1.80;;;9.90;99.90;;;;;;5101227;27;20194;-87
2022/01/03 06:04:12;;;;;;;5.75;1.80;;;9.80;99.90;;;;;;5103343;27;20193;-90
2022/01/03 06:06:55;;;;;;;6.18;2.17;;;9.90;99.90;;;;;;5098532;27;20667;-84
2022/01/03 06:09:21;;;;;;;9.25;1.75;;;;;;;;;;5105974;27;21132;-88
2022/01/03 06:11:47;;;;;;;4.75;1.45;;;9.90;99.90;;;;;;5119304;27;20202;-90
2022/01/03 06:14:16;;;;;;;13.33;2.20;;;9.90;99.90;;;;;;5101248;27;20198;-86
2022/01/03 06:16:43;;;;;;;6.18;1.50;;;9.90;99.90;;;;;;5096594;27;20682;-87
2022/01/03 06:19:09;;;;;;;2.90;1.25;;;9.90;99.90;;;;;;5098618;27;20760;-88
2022/01/03 06:21:40;;;;;;;6.23;1.90;;;9.90;99.90;;;;;;5100778;27;20273;-89
2022/01/03 06:24:07;;;;;;;6.90;1.80;;;;;;;;;;5104634;27;20182;-88
2022/01/03 06:26:32;;;;;;;9.40;1.35;;;9.90;99.90;;;;;;5104908;27;20266;-85
2022/01/03 06:28:58;;;;;;;8.73;2.27;;;9.70;99.90;;;;;;5115213;27;20190;-83
2022/01/03 06:31:23;;;;;;;4.23;1.93;;;9.70;99.90;;;;;;5105424;27;21176;-88
2022/01/03 06:33:49;;;;;;;5.40;2.00;;;9.70;99.90;;;;;;5100391;27;20289;-88
2022/01/03 06:36:14;;;;;;;9.60;1.97;;;9.70;99.90;;;;;;5101221;27;20183;-85
2022/01/03 06:38:40;;;;;;;10.87;1.80;;;;;;;;;;5098437;27;20182;-88
2022/01/03 06:41:06;;;;;;;10.63;1.77;;;9.70;99.90;;;;;;5107190;27;20621;-89
2022/01/03 06:43:31;;;;;;;12.07;2.17;;;;;;;;;;5114573;27;21188;-85
2022/01/03 06:45:57;;;;;;;5.90;2.30;;;;;;;;;;5091380;27;20305;-88
2022/01/03 06:48:23;;;;;;;5.70;1.33;;;;;;;;;;5083711;27;21482;-83
2022/01/03 06:50:50;;;;;;;7.65;1.80;;;9.80;99.90;;;;;;5095421;27;20431;-84
2022/01/03 06:53:16;;;;;;;7.32;1.83;;;9.80;99.90;;;;;;5084154;27;20255;-89
2022/01/03 06:55:42;;;;;;;14.10;2.10;;;;;;;;;;5082497;27;20843;-85
2022/01/03 06:58:08;;;;;;;6.88;1.75;;;9.80;99.90;;;;;;5084547;27;20179;-86
2022/01/03 07:00:33;;;;;;;7.53;1.90;;;;;;;;;;5094901;27;20262;-85
2022/01/03 07:02:59;;;;;;;9.73;2.43;;;9.90;99.90;;;;;;5088478;27;20184;-85
2022/01/03 07:05:25;;;;;;;9.93;1.77;;;9.80;99.90;;;;;;5113358;27;20427;-85
2022/01/03 07:07:50;;;;;;;7.70;1.40;;;9.80;99.90;;;;;;5102339;27;20175;-88
2022/01/03 07:10:17;;;;;;;10.73;1.77;;;;;;;;;;5082562;27;20187;-83
2022/01/03 07:12:43;;;;;;;5.78;1.50;;;9.90;99.90;;;;;;5097960;27;20213;-84
2022/01/03 07:20:38;;;;;;;5.43;1.50;;;9.90;99.90;;;;;;5097420;27;20186;-88
2022/01/03 07:23:04;;;;;;;7.25;1.95;;;;;;;;;;5098041;27;20174;-83
2022/01/03 07:25:32;;;;;;;6.83;2.60;;;9.90;99.90;;;;;;5078213;27;20766;-86
2022/01/03 07:27:58;;;;;;;11.73;2.00;;;;;;;;;;5084261;27;20504;-84
2022/01/03 07:30:24;;;;;;;6.60;1.53;;;;;;;;;;5080451;27;20700;-86
2022/01/03 07:32:50;;;;;;;4.77;2.20;;;9.90;99.90;;;;;;5096647;27;20516;-88
2022/01/03 07:35:16;;;;;;;7.40;1.90;;;9.90;99.90;;;;;;5109908;27;20492;-88
2022/01/03 07:37:42;;;;;;;6.77;1.90;;;;;;;;;;5098639;27;20611;-86
2022/01/03 07:40:08;;;;;;;5.10;1.67;;;9.90;99.90;;;;;;5081251;27;20462;-84
2022/01/03 07:42:34;;;;;;;3.88;1.92;;;;;;;;;;5083250;27;20296;-88
2022/01/03 07:45:00;;;;;;;7.33;1.57;;;9.90;99.90;;;;;;5082890;27;20942;-87
2022/01/03 07:47:26;;;;;;;4.00;1.60;;;;;;;;;;5087218;27;20435;-87
2022/01/03 07:49:52;;;;;;;12.80;1.97;;;9.90;99.90;;;;;;5084040;27;20186;-89
2022/01/03 07:52:18;;;;;;;7.73;1.97;;;;;;;;;;5098287;27;20457;-90
2022/01/03 07:54:44;;;;;;;8.63;1.67;;;;;;;;;;5080831;27;20234;-88
2022/01/03 07:57:09;;;;;;;7.95;1.52;;;9.90;99.90;;;;;;5097339;27;20431;-85
2022/01/03 07:59:35;;;;;;;7.17;1.67;;;9.90;99.90;;;;;;5073575;27;20222;-87
2022/01/03 08:02:01;;;;;;;11.60;1.80;;;;;;;;;;5079582;27;20218;-87
2022/01/03 08:04:27;;;;;;;7.37;1.63;;;9.80;99.90;;;;;;5084084;27;20186;-89
2022/01/03 08:06:53;;;;;;;7.28;2.00;;;9.70;99.90;;;;;;5101499;27;20819;-86
2022/01/03 08:09:20;;;;;;;6.28;1.60;;;9.60;99.90;;;;;;5090943;27;20271;-85
2022/01/03 08:11:45;;;;;;;8.40;1.60;;;9.60;99.90;;;;;;5075037;27;20209;-88
2022/01/03 08:14:11;;;;;;;11.80;2.17;;;9.50;99.90;;;;;;5077781;27;20211;-87
2022/01/03 08:16:36;;;;;;;6.27;2.17;;;9.50;99.90;;;;;;5081612;27;20228;-87
2022/01/03 08:19:03;;;;;;;5.87;2.00;;;;;;;;;;5093991;27;20174;-84
2022/01/03 08:21:29;;;;;;;8.70;2.05;;;9.40;99.90;;;;;;5075379;27;22109;-85
2022/01/03 08:23:54;;;;;;;10.52;2.03;;;9.40;99.90;;;;;;5079979;27;20186;-82
2022/01/03 08:26:20;;;;;;;7.53;1.80;;;;;;;;;;5072208;27;20823;-86
2022/01/03 08:28:46;;;;;;;12.03;2.40;;;9.40;99.90;;;;;;5075435;27;20278;-85
2022/01/03 08:31:12;;;;;;;7.40;2.67;;;;;;;;;;5094638;27;20452;-84
2022/01/03 08:33:39;;;;;;;11.73;2.40;;;9.40;99.90;;;;;;5079232;27;20321;-82
2022/01/03 08:36:04;;;;;;;5.65;1.90;;;9.40;99.90;;;;;;5090040;27;20644;-87
2022/01/03 08:38:30;;;;;;;5.23;2.00;;;;;;;;;;5095088;27;20267;-88
2022/01/03 08:40:56;;;;;;;4.80;2.27;;;9.40;99.90;;;;;;5091189;27;20335;-84
2022/01/03 08:43:23;;;;;;;9.57;3.37;;;;;;;;;;5080703;27;20437;-86
2022/01/03 08:45:49;;;;;;;6.63;1.75;;;9.60;99.90;;;;;;5075852;27;20190;-87
2022/01/03 08:48:15;;;;;;;8.43;2.20;;;;;;;;;;5078708;27;20228;-87
2022/01/03 08:50:40;;;;;;;5.70;1.87;;;9.60;99.90;;;;;;5077529;27;20199;-86
2022/01/03 08:53:06;;;;;;;6.93;1.73;;;9.60;99.90;;;;;;5091131;27;20432;-88
2022/01/03 08:55:31;;;;;;;7.23;2.07;;;9.60;99.90;;;;;;5078514;27;20206;-85
2022/01/03 08:57:57;;;;;;;3.97;1.63;;;11.00;99.90;;;;;;5104024;27;20260;-86
2022/01/03 09:00:23;;;;;;;6.97;2.27;;;;;;;;;;5102683;27;20575;-88
2022/01/03 09:02:48;;;;;;;9.43;1.40;;;9.60;99.90;;;;;;5097533;27;20209;-88
2022/01/03 09:05:14;;;;;;;7.83;2.23;;;9.60;99.90;;;;;;5110189;27;20953;-88
2022/01/03 09:07:40;;;;;;;7.63;1.50;;;9.60;99.90;;;;;;5093152;27;20367;-89
2022/01/03 09:10:06;;;;;;;3.67;1.23;;;9.70;99.90;;;;;;5108062;27;20186;-87
2022/01/03 09:12:33;;;;;;;8.50;1.63;;;9.70;99.90;;;;;;5085948;27;20207;-85
2022/01/03 09:15:03;;;;;;;5.25;2.00;;;9.80;99.90;;;;;;5096077;27;20213;-89
2022/01/03 09:17:33;;;;;;;5.82;1.90;;;9.90;99.90;;;;;;5099297;27;20567;-87
2022/01/03 09:20:01;;;;;;;5.93;1.48;;;9.90;99.90;;;;;;5099388;27;20214;-89
2022/01/03 09:22:39;;;;;;;7.05;1.58;;;10.00;99.90;;;;;;5098991;27;20230;-88
2022/01/03 09:30:16;;;;;;;6.60;2.30;;;10.10;99.90;;;;;;5118416;27;20459;-90
2022/01/03 09:33:06;;;;;;;10.98;1.92;;;10.20;99.90;;;;;;5103276;28;20582;-88
2022/01/03 09:35:32;;;;;;;6.97;1.42;;;;;;;;;;5107420;27;20202;-89
2022/01/03 09:38:00;;;;;;;5.40;1.45;;;10.20;99.90;;;;;;5119745;27;20674;-89
2022/01/03 09:40:29;;;;;;;8.13;1.60;;;10.30;99.90;;;;;;5115901;28;20289;-89
2022/01/03 09:43:00;;;;;;;5.45;1.65;;;10.30;99.90;;;;;;5111105;27;20270;-87
2022/01/03 09:45:28;;;;;;;10.85;2.38;;;10.30;99.90;;;;;;5101108;28;20195;-87
2022/01/03 09:47:59;;;;;;;6.57;1.95;;;10.40;99.90;;;;;;5105054;27;20183;-89
2022/01/03 09:50:26;;;;;;;14.32;2.85;;;10.40;99.90;;;;;;5108443;28;20215;-89
2022/01/03 09:52:52;;;;;;;13.38;1.60;;;;;;;;;;5118069;27;20207;-89
2022/01/03 09:55:21;;;;;;;7.60;1.80;;;10.50;99.90;;;;;;5110727;28;20229;-89
2022/01/03 09:57:51;;;;;;;4.80;2.95;;;10.50;99.90;;;;;;5103120;27;20196;-86
2022/01/03 10:00:22;;;;;;;9.65;2.00;;;10.50;99.90;;;;;;5121646;22;20257;-86
2022/01/03 10:02:49;;;;;;;4.03;1.85;;;10.50;99.90;;;;;;5069773;28;20193;-87
2022/01/03 10:05:15;;;;;;;5.45;1.92;;;10.50;99.90;;;;;;5064378;28;20529;-86
2022/01/03 10:07:40;;;;;;;6.93;1.73;;;10.60;99.90;;;;;;5059964;28;20854;-86
2022/01/03 10:10:08;;;;;;;13.47;1.80;;;10.50;99.90;;;;;;5074546;28;20583;-88
2022/01/03 10:12:35;;;;;;;6.60;1.65;;;10.60;99.90;;;;;;5069524;28;20176;-86
2022/01/03 10:15:00;;;;;;;4.57;1.52;;;10.60;99.90;;;;;;5056870;28;20303;-85
2022/01/03 10:17:26;;;;;;;6.37;2.20;;;10.60;99.90;;;;;;5075146;28;20267;-86
2022/01/03 10:19:58;;;;;;;9.73;1.97;;;10.70;99.90;;;;;;5059917;28;20192;-86
2022/01/03 10:22:27;;;;;;;10.55;1.95;;;10.70;99.90;;;;;;5053073;28;20684;-85
2022/01/03 10:24:53;;;;;;;8.25;2.20;;;10.70;99.90;;;;;;5049327;28;20184;-85
2022/01/03 10:27:22;;;;;;;4.35;1.50;;;10.90;99.90;;;;;;5058418;28;20188;-87
2022/01/03 10:29:56;;;;;;;11.25;1.80;;;10.70;99.90;;;;;;5073695;28;20290;-86
2022/01/03 10:32:29;;;;;;;5.07;2.03;;;10.70;99.90;;;;;;5049384;28;20192;-87
2022/01/03 10:35:17;;;;;;;10.00;1.33;;;10.80;99.90;;;;;;5076045;28;20188;-87
2022/01/03 10:37:42;;;;;;;5.57;1.77;;;10.80;99.90;;;;;;5057044;28;20438;-85
2022/01/03 10:40:35;;;;;;;3.47;1.23;;;10.70;99.90;;;;;;5055107;28;20576;-86
2022/01/03 10:43:19;;;;;;;3.35;1.35;;;10.80;99.90;;;;;;5077444;28;20869;-86
2022/01/03 10:45:45;;;;;;;2.90;1.27;;;10.80;99.90;;;;;;5055530;28;20177;-86
2022/01/03 10:48:28;;;;;;;8.35;2.13;;;10.80;99.90;;;;;;5076623;28;20188;-86
2022/01/03 10:50:55;;;;;;;7.53;2.63;;;10.80;99.90;;;;;;5060546;28;20226;-86
2022/01/03 10:53:40;;;;;;;45.50;18.92;;;10.90;99.90;;;;;;5062203;28;20192;-86
2022/01/03 10:56:31;;;;;;;25.05;9.35;;;10.90;99.90;;;;;;5060794;28;20188;-85
2022/01/03 10:59:01;;;;;;;10.75;1.60;;;10.90;99.90;;;;;;5081121;28;20450;-84
2022/01/03 11:01:29;;;;;;;7.47;1.83;;;10.90;99.90;;;;;;5061831;28;20632;-84
2022/01/03 11:03:57;;;;;;;4.63;2.05;;;10.90;99.90;;;;;;5063910;28;20194;-86
2022/01/03 11:11:45;;;;;;;9.63;2.25;;;11.00;99.90;;;;;;5081328;28;20558;-86
2022/01/03 11:14:41;;;;;;;4.80;1.80;;;11.00;99.90;;;;;;5080184;28;20278;-86
2022/01/03 11:17:23;;;;;;;5.43;1.65;;;11.10;99.90;;;;;;5074726;28;20180;-86
2022/01/03 11:19:48;;;;;;;7.83;1.90;;;11.10;99.90;;;;;;5075522;28;22312;-84
2022/01/03 11:22:36;;;;;;;8.90;2.50;;;11.10;99.90;;;;;;5052143;28;20435;-86
2022/01/03 11:25:01;;;;;;;6.00;1.83;;;11.20;99.90;;;;;;5075332;28;20184;-86
2022/01/03 11:27:27;;;;;;;4.43;1.50;;;11.30;99.90;;;;;;5062897;28;20171;-85
2022/01/03 11:29:53;;;;;;;10.03;2.33;;;11.30;99.90;;;;;;5081056;28;20185;-86
2022/01/03 11:32:19;;;;;;;5.23;1.40;;;11.40;99.90;;;;;;5063396;28;20176;-85
2022/01/03 11:34:45;;;;;;;5.03;1.60;;;11.40;99.90;;;;;;5057306;28;20459;-85
2022/01/03 11:37:11;;;;;;;11.45;1.60;;;11.30;99.90;;;;;;5058432;28;20520;-86
2022/01/03 11:39:37;;;;;;;10.80;2.30;;;11.20;99.90;;;;;;5072075;28;20280;-85
2022/01/03 11:42:03;;;;;;;4.43;1.50;;;11.10;99.90;;;;;;5102622;28;20164;-85
2022/01/03 11:44:30;;;;;;;7.35;1.58;;;11.10;99.90;;;;;;5075371;28;20442;-86
2022/01/03 11:46:55;;;;;;;7.68;2.10;;;11.20;99.90;;;;;;5075718;28;20202;-85
2022/01/03 11:49:21;;;;;;;7.77;2.53;;;11.10;99.90;;;;;;5078207;28;20204;-84
2022/01/03 11:51:47;;;;;;;10.57;3.63;;;11.10;99.90;;;;;;5059641;28;20198;-85
2022/01/03 11:54:14;;;;;;;13.27;2.22;;;11.00;99.90;;;;;;5060848;28;20200;-86
2022/01/03 11:56:48;;;;;;;7.80;1.90;;;11.10;99.90;;;;;;5060960;28;20161;-86
2022/01/03 12:04:35;;;;;;;5.13;1.60;;;11.10;99.90;;;;;;5076363;28;20199;-85
2022/01/03 12:07:10;;;;;;;2.83;1.58;;;11.20;99.90;;;;;;5053197;28;20306;-84
2022/01/03 12:09:43;;;;;;;6.35;1.92;;;11.30;99.90;;;;;;5059203;28;20199;-85
2022/01/03 12:12:09;;;;;;;5.85;1.65;;;11.30;99.90;;;;;;5059855;28;20176;-85
2022/01/03 12:14:43;;;;;;;6.88;1.98;;;11.20;99.90;;;;;;5062141;28;20214;-86
2022/01/03 12:17:13;;;;;;;6.43;0.93;;;11.30;99.90;;;;;;5071185;28;20229;-85
2022/01/03 12:19:47;;;;;;;8.73;1.77;;;11.20;99.90;;;;;;5098227;28;20199;-84
2022/01/03 12:22:18;;;;;;;6.95;1.95;;;11.30;99.90;;;;;;5078697;28;20630;-83
2022/01/03 12:24:46;;;;;;;7.70;2.17;;;11.30;99.90;;;;;;5064920;28;20191;-84
2022/01/03 12:27:16;;;;;;;5.30;2.65;;;11.20;99.90;;;;;;5053040;28;20215;-84
2022/01/03 12:29:57;;;;;;;10.02;2.67;;;11.30;99.90;;;;;;5068731;28;20212;-83
2022/01/03 12:32:26;;;;;;;12.20;3.70;;;11.30;99.90;;;;;;5058386;28;20271;-85
2022/01/03 12:35:07;;;;;;;6.00;1.63;;;11.40;99.90;;;;;;5075817;28;20465;-83
2022/01/03 12:37:35;;;;;;;5.23;1.63;;;11.40;99.90;;;;;;5052180;28;20512;-83
2022/01/03 12:40:04;;;;;;;4.15;1.52;;;11.50;99.90;;;;;;5056897;28;20443;-84
2022/01/03 12:42:54;;;;;;;4.53;1.50;;;11.40;99.90;;;;;;5058943;28;20252;-83
2022/01/03 12:45:39;;;;;;;4.60;2.07;;;11.50;99.90;;;;;;5061661;28;20469;-84
2022/01/03 12:48:11;;;;;;;4.57;1.90;;;11.50;99.90;;;;;;5059078;28;20927;-84
2022/01/03 12:50:51;;;;;;;11.30;1.60;;;11.60;99.90;;;;;;5057762;28;20435;-83
2022/01/03 12:53:23;;;;;;;11.15;2.50;;;11.70;99.90;;;;;;5059014;28;20172;-82
2022/01/03 12:55:52;;;;;;;5.18;1.52;;;11.90;99.90;;;;;;5055207;28;20191;-84
2022/01/03 12:58:20;;;;;;;12.60;2.38;;;11.90;99.90;;;;;;5070928;28;20180;-84
2022/01/03 13:00:50;;;;;;;18.73;9.40;;;11.80;99.90;;;;;;5074307;28;20298;-82
2022/01/03 13:03:24;;;;;;;5.13;1.43;;;11.90;99.90;;;;;;5058407;28;20427;-84
2022/01/03 13:06:15;;;;;;;7.20;1.60;;;11.80;99.90;;;;;;5055165;28;20904;-84
2022/01/03 13:08:55;;;;;;;5.72;1.98;;;11.80;99.90;;;;;;5056345;28;20441;-84
2022/01/03 13:11:31;;;;;;;7.03;2.40;;;12.10;99.90;;;;;;5072979;28;20421;-85
2022/01/03 13:14:12;;;;;;;9.67;3.40;;;12.50;99.90;;;;;;5058079;28;20575;-86
2022/01/03 13:16:48;;;;;;;7.90;4.30;;;12.20;99.90;;;;;;5053854;28;20485;-85
2022/01/03 13:19:28;;;;;;;4.00;1.10;;;12.20;99.90;;;;;;5059811;28;20434;-86
2022/01/03 13:22:02;;;;;;;5.80;1.60;;;12.20;99.90;;;;;;5070060;28;20438;-85
2022/01/03 13:24:41;;;;;;;6.40;1.40;;;12.00;99.90;;;;;;5058060;28;20464;-83
2022/01/03 13:27:11;;;;;;;9.63;1.33;;;12.10;99.90;;;;;;5038302;28;20477;-85
2022/01/03 13:29:46;;;;;;;5.67;1.33;;;12.00;99.90;;;;;;5038826;28;20446;-83
2022/01/03 13:32:42;;;;;;;6.50;1.33;;;12.00;99.90;;;;;;5055315;28;20444;-87
2022/01/03 13:35:08;;;;;;;3.40;1.00;;;12.00;99.90;;;;;;5040232;28;21241;-83